Airport View

Enter ICAO identifier to see the current METAR for that AWOS.

KFNL for example

KGDV 231115Z AUTO 06005KT 10SM CLR 16/14 A3022

23 Jul 2014 11:33

Frequency: 135.075

Phone: 406-687-3346

Other Area AWOS: K20U - KSDY - KBHK - KPO1

KGDV 230523Z 2306/2406 VRB05KT P6SM FEW050 SCT120 BKN250 FM231500 14011G17KT P6SM FEW250 FM232200 13022G30KT P6SM BKN250 FM240200 11015G25KT P6SM FEW300 AMD LTD TO CLD VIS AND WIND